createdAt,value
2018-06-08T00:00:43.053Z,93.40
2018-06-08T00:03:11.762Z,93.30
2018-06-08T00:05:40.395Z,93.30
2018-06-08T00:08:08.928Z,93.30
2018-06-08T00:10:37.525Z,93.30
2018-06-08T00:13:06.304Z,93.30
2018-06-08T00:15:34.884Z,93.30
2018-06-08T00:18:03.440Z,93.40
2018-06-08T00:23:00.230Z,93.50
2018-06-08T00:25:28.730Z,93.30
2018-06-08T00:27:57.278Z,93.50
2018-06-08T00:30:25.792Z,93.20
2018-06-08T00:32:54.310Z,93.20
2018-06-08T00:35:22.859Z,93.10
2018-06-08T00:37:51.399Z,93.20
2018-06-08T00:40:19.981Z,93.10
2018-06-08T00:42:48.543Z,93.10
2018-06-08T00:45:17.074Z,93.60
2018-06-08T00:47:45.618Z,93.60
2018-06-08T00:50:14.159Z,93.60
2018-06-08T00:52:42.724Z,93.50
2018-06-08T00:55:11.341Z,93.40
2018-06-08T00:57:39.880Z,93.60
2018-06-08T01:00:08.474Z,93.70
2018-06-08T01:02:37.070Z,93.30
2018-06-08T01:05:05.697Z,93.40
2018-06-08T01:07:34.222Z,93.40
2018-06-08T01:10:02.758Z,93.70
2018-06-08T01:12:31.300Z,93.30
2018-06-08T01:14:59.818Z,93.40
2018-06-08T01:17:28.377Z,93.50
2018-06-08T01:19:56.949Z,93.60
2018-06-08T01:22:25.478Z,93.70
2018-06-08T01:24:54.060Z,93.80
2018-06-08T01:27:22.584Z,93.80
2018-06-08T01:29:51.155Z,93.60
2018-06-08T01:32:19.706Z,93.50
2018-06-08T01:34:48.222Z,93.50
2018-06-08T01:37:16.931Z,93.60
2018-06-08T01:39:45.462Z,93.40
2018-06-08T01:42:13.990Z,93.30
2018-06-08T01:44:42.631Z,93.50
2018-06-08T01:47:11.222Z,93.40
2018-06-08T01:49:39.761Z,93.50
2018-06-08T01:52:08.380Z,94.20
2018-06-08T01:54:36.950Z,94.20
2018-06-08T01:57:05.503Z,94.20
2018-06-08T01:59:35.557Z,93.70
2018-06-08T02:02:04.552Z,93.60
2018-06-08T02:04:33.117Z,93.60
2018-06-08T02:07:01.771Z,93.50
2018-06-08T02:09:30.351Z,93.40
2018-06-08T02:11:59.067Z,93.40
2018-06-08T02:14:27.619Z,93.80
2018-06-08T02:16:56.203Z,93.70
2018-06-08T02:19:24.779Z,94.10
2018-06-08T02:21:53.367Z,94.50
2018-06-08T02:24:21.953Z,94.80
2018-06-08T02:26:50.527Z,94.40
2018-06-08T02:29:19.108Z,94.30
2018-06-08T02:31:47.687Z,94.50
2018-06-08T02:34:16.259Z,94.70
2018-06-08T02:36:44.818Z,94.40
2018-06-08T02:39:13.358Z,94.10
2018-06-08T02:41:41.900Z,94.30
2018-06-08T02:44:10.492Z,93.90
2018-06-08T02:46:39.105Z,93.90
2018-06-08T02:49:07.688Z,94.00
2018-06-08T02:51:36.330Z,94.70
2018-06-08T02:54:04.909Z,94.10
2018-06-08T02:56:33.516Z,93.90
2018-06-08T02:59:02.216Z,94.50
2018-06-08T03:01:36.138Z,94.50
2018-06-08T03:04:04.873Z,94.50
2018-06-08T03:06:33.469Z,94.80
2018-06-08T03:09:02.160Z,94.90
2018-06-08T03:11:31.067Z,94.50
2018-06-08T03:14:00.724Z,94.10
2018-06-08T03:16:29.606Z,93.90
2018-06-08T03:18:58.528Z,93.80
2018-06-08T03:21:27.483Z,93.90
2018-06-08T03:23:56.282Z,94.00
2018-06-08T03:26:25.131Z,94.10
2018-06-08T03:28:54.044Z,94.00
2018-06-08T03:31:36.875Z,94.00
2018-06-08T03:34:05.588Z,94.10
2018-06-08T03:36:34.333Z,94.20
2018-06-08T03:39:03.191Z,94.40
2018-06-08T03:41:32.163Z,94.10
2018-06-08T03:44:00.936Z,94.30
2018-06-08T03:46:30.506Z,94.20
2018-06-08T03:48:59.432Z,94.20
2018-06-08T03:51:28.576Z,94.20
2018-06-08T03:54:04.429Z,94.20
2018-06-08T03:56:33.571Z,94.20
2018-06-08T03:59:02.688Z,94.20
2018-06-08T04:01:31.708Z,94.10
2018-06-08T04:04:00.445Z,93.90
2018-06-08T04:06:29.181Z,94.00
2018-06-08T04:09:01.922Z,93.90
2018-06-08T04:11:30.965Z,93.70
2018-06-08T04:13:59.778Z,93.60
2018-06-08T04:16:31.022Z,93.60
2018-06-08T04:18:59.817Z,93.50
2018-06-08T04:21:28.621Z,93.60
2018-06-08T04:23:58.469Z,93.60
2018-06-08T04:26:27.334Z,93.40
2018-06-08T04:28:56.322Z,93.60
2018-06-08T04:31:25.054Z,93.20
2018-06-08T04:33:54.230Z,93.70
2018-06-08T04:36:25.103Z,94.10
2018-06-08T04:38:56.961Z,94.00
2018-06-08T04:41:25.585Z,94.30
2018-06-08T04:43:54.610Z,93.80
2018-06-08T04:46:23.466Z,94.00
2018-06-08T04:48:52.249Z,94.30
2018-06-08T04:51:21.044Z,94.20
2018-06-08T04:53:49.745Z,94.00
2018-06-08T04:56:18.313Z,94.00
2018-06-08T04:58:52.027Z,93.70
2018-06-08T05:01:20.661Z,93.60
2018-06-08T05:03:49.244Z,93.20
2018-06-08T05:06:17.871Z,93.20
2018-06-08T05:08:46.492Z,93.30
2018-06-08T05:11:17.070Z,93.10
2018-06-08T05:13:45.985Z,93.30
2018-06-08T05:16:14.790Z,93.20
2018-06-08T05:18:43.389Z,93.20
2018-06-08T05:21:12.110Z,93.20
2018-06-08T05:23:40.722Z,92.80
2018-06-08T05:26:09.557Z,92.80
2018-06-08T05:28:38.093Z,92.50
2018-06-08T05:31:06.684Z,92.40
2018-06-08T05:33:35.319Z,92.40
2018-06-08T05:36:04.009Z,92.70
2018-06-08T05:38:32.525Z,92.70
2018-06-08T05:41:01.963Z,92.50
2018-06-08T05:43:30.535Z,92.50
2018-06-08T05:45:59.115Z,92.60
2018-06-08T05:48:27.731Z,92.80
2018-06-08T05:50:56.329Z,92.90
2018-06-08T05:53:24.978Z,93.10
2018-06-08T05:55:53.617Z,92.70
2018-06-08T05:58:22.343Z,92.70
2018-06-08T06:00:50.973Z,92.70
2018-06-08T06:03:20.596Z,92.50
2018-06-08T06:05:49.428Z,92.40
2018-06-08T06:08:18.317Z,92.30
2018-06-08T06:10:49.189Z,92.30
2018-06-08T06:13:17.750Z,92.30
2018-06-08T06:15:46.320Z,92.20
2018-06-08T06:18:14.984Z,91.50
2018-06-08T06:20:44.101Z,91.90
2018-06-08T06:23:12.991Z,92.20
2018-06-08T06:25:41.857Z,92.00
2018-06-08T06:28:10.502Z,91.70
2018-06-08T06:30:39.119Z,91.60
2018-06-08T06:33:07.754Z,91.30
2018-06-08T06:35:36.295Z,91.30
2018-06-08T06:38:05.108Z,91.00
2018-06-08T06:40:33.747Z,90.80
2018-06-08T06:43:02.344Z,90.20
2018-06-08T06:45:30.944Z,90.30
2018-06-08T06:47:59.582Z,90.50
2018-06-08T06:50:28.143Z,90.00
2018-06-08T06:52:56.949Z,89.90
2018-06-08T06:55:25.582Z,90.00
2018-06-08T06:57:54.142Z,90.00
2018-06-08T07:00:22.741Z,90.30
2018-06-08T07:02:51.346Z,90.20
2018-06-08T07:05:19.922Z,89.70
2018-06-08T07:07:48.463Z,88.20
2018-06-08T07:10:17.116Z,87.70
2018-06-08T07:12:45.685Z,87.30
2018-06-08T07:15:14.250Z,87.30
2018-06-08T07:17:42.834Z,87.60
2018-06-08T07:20:11.380Z,88.10
2018-06-08T07:22:39.920Z,87.00
2018-06-08T07:25:08.554Z,85.00
2018-06-08T07:27:37.095Z,84.90
2018-06-08T07:30:05.622Z,85.40
2018-06-08T07:32:34.205Z,84.50
2018-06-08T07:35:02.736Z,83.90
2018-06-08T07:39:59.530Z,83.90
2018-06-08T07:42:28.061Z,82.70
2018-06-08T07:44:56.657Z,82.80
2018-06-08T07:47:25.214Z,82.40
2018-06-08T07:49:53.692Z,81.80
2018-06-08T07:52:22.245Z,81.90
2018-06-08T07:54:50.854Z,81.00
2018-06-08T07:57:19.402Z,75.70
2018-06-08T07:59:47.901Z,77.80
2018-06-08T08:02:16.527Z,72.90
2018-06-08T08:04:45.164Z,72.50
2018-06-08T08:07:13.700Z,73.20
2018-06-08T08:09:42.270Z,70.40
2018-06-08T08:12:10.875Z,70.10
2018-06-08T08:14:39.398Z,69.00
2018-06-08T08:17:08.033Z,70.30
2018-06-08T08:19:36.553Z,68.20
2018-06-08T08:22:05.091Z,63.10
2018-06-08T08:24:33.638Z,62.40
2018-06-08T08:27:02.178Z,59.90
2018-06-08T08:29:30.711Z,59.20
2018-06-08T08:31:59.232Z,56.80
2018-06-08T08:34:27.774Z,55.10
2018-06-08T08:36:56.287Z,57.60
2018-06-08T08:39:24.826Z,55.80
2018-06-08T08:41:53.406Z,52.40
2018-06-08T08:44:21.949Z,50.70
2018-06-08T08:46:50.457Z,50.80
2018-06-08T08:49:19.001Z,50.20
2018-06-08T08:51:47.606Z,50.30
2018-06-08T08:54:16.088Z,48.70
2018-06-08T08:56:44.624Z,47.10
2018-06-08T08:59:13.148Z,49.40
2018-06-08T09:01:41.700Z,47.30
2018-06-08T09:04:10.235Z,47.40
2018-06-08T09:06:38.751Z,47.20
2018-06-08T09:09:07.590Z,47.40
2018-06-08T09:11:36.143Z,45.90
2018-06-08T09:14:04.723Z,45.70
2018-06-08T09:16:33.289Z,44.20
2018-06-08T09:19:01.772Z,44.20
2018-06-08T09:21:30.318Z,44.80
2018-06-08T09:23:58.862Z,45.00
2018-06-08T09:26:27.374Z,45.60
2018-06-08T09:28:55.883Z,46.00
2018-06-08T09:31:24.430Z,44.40
2018-06-08T09:33:52.973Z,44.60
2018-06-08T09:36:21.586Z,44.30
2018-06-08T09:41:19.550Z,45.00
2018-06-08T09:43:48.241Z,45.30
2018-06-08T09:46:17.038Z,45.00
2018-06-08T09:48:45.725Z,43.00
2018-06-08T09:51:14.298Z,41.90
2018-06-08T09:53:42.914Z,44.80
2018-06-08T09:56:11.569Z,44.70
2018-06-08T09:58:40.203Z,46.00
2018-06-08T10:01:08.916Z,45.10
2018-06-08T10:03:37.501Z,45.40
2018-06-08T10:06:06.102Z,45.40
2018-06-08T10:08:34.639Z,44.30
2018-06-08T10:11:03.155Z,45.70
2018-06-08T10:13:31.784Z,45.60
2018-06-08T10:16:00.367Z,43.30
2018-06-08T10:18:28.921Z,42.90
2018-06-08T10:20:57.482Z,44.30
2018-06-08T10:23:26.032Z,45.70
2018-06-08T10:25:54.599Z,45.60
2018-06-08T10:28:23.162Z,44.10
2018-06-08T10:30:51.670Z,44.40
2018-06-08T10:33:20.225Z,45.70
2018-06-08T10:35:48.781Z,45.50
2018-06-08T10:38:17.385Z,46.90
2018-06-08T10:40:45.993Z,47.40
2018-06-08T10:43:14.524Z,47.50
2018-06-08T10:45:43.711Z,46.60
2018-06-08T10:48:12.253Z,45.70
2018-06-08T10:50:40.913Z,46.20
2018-06-08T10:53:09.560Z,47.00
2018-06-08T10:55:38.090Z,48.10
2018-06-08T10:58:06.705Z,46.40
2018-06-08T11:00:35.368Z,47.70
2018-06-08T11:03:03.908Z,47.60
2018-06-08T11:05:32.416Z,46.80
2018-06-08T11:08:01.014Z,48.70
2018-06-08T11:10:29.578Z,49.00
2018-06-08T11:12:58.281Z,49.20
2018-06-08T11:15:27.018Z,45.20
2018-06-08T11:17:55.538Z,49.20
2018-06-08T11:20:24.197Z,46.30
2018-06-08T11:22:52.848Z,47.60
2018-06-08T11:25:21.525Z,47.00
2018-06-08T11:27:50.166Z,47.20
2018-06-08T11:30:18.816Z,47.50
2018-06-08T11:32:47.381Z,48.80
2018-06-08T11:35:15.874Z,48.70
2018-06-08T11:37:45.809Z,49.60
2018-06-08T11:40:14.404Z,47.80
2018-06-08T11:42:43.000Z,48.20
2018-06-08T11:45:12.514Z,48.40
2018-06-08T11:47:41.090Z,49.10
2018-06-08T11:50:09.648Z,50.40
2018-06-08T11:52:38.389Z,49.10
2018-06-08T11:55:06.944Z,48.60
2018-06-08T11:57:35.469Z,48.40
2018-06-08T12:00:04.670Z,45.50
2018-06-08T12:02:33.185Z,46.10
2018-06-08T12:05:01.672Z,47.20
2018-06-08T12:07:30.227Z,47.10
2018-06-08T12:09:58.718Z,46.80
2018-06-08T12:12:27.235Z,47.60
2018-06-08T12:14:55.802Z,47.40
2018-06-08T12:17:24.341Z,46.80
2018-06-08T12:19:52.877Z,47.10
2018-06-08T12:22:22.298Z,47.20
2018-06-08T12:24:51.993Z,45.40
2018-06-08T12:27:20.520Z,48.30
2018-06-08T12:29:49.067Z,47.30
2018-06-08T12:32:17.607Z,46.80
2018-06-08T12:34:46.135Z,46.60
2018-06-08T12:37:14.685Z,47.10
2018-06-08T12:39:43.245Z,47.50
2018-06-08T12:42:12.980Z,49.10
2018-06-08T12:44:41.613Z,47.10
2018-06-08T12:47:11.646Z,48.60
2018-06-08T12:49:40.177Z,46.50
2018-06-08T12:52:08.745Z,43.90
2018-06-08T12:54:37.335Z,43.30
2018-06-08T12:57:05.966Z,44.50
2018-06-08T12:59:34.564Z,44.90
2018-06-08T13:02:03.104Z,45.90
2018-06-08T13:04:32.553Z,46.90
2018-06-08T13:07:01.302Z,46.70
2018-06-08T13:09:29.838Z,47.80
2018-06-08T13:11:58.968Z,49.70
2018-06-08T13:14:28.478Z,51.90
2018-06-08T13:16:57.680Z,53.90
2018-06-08T13:19:26.275Z,53.00
2018-06-08T13:21:54.873Z,53.90
2018-06-08T13:24:23.424Z,55.40
2018-06-08T13:26:52.020Z,56.50
2018-06-08T13:29:20.651Z,57.40
2018-06-08T13:31:49.208Z,59.30
2018-06-08T13:34:17.760Z,59.20
2018-06-08T13:36:46.352Z,58.40
2018-06-08T13:39:14.954Z,60.10
2018-06-08T13:41:43.514Z,62.50
2018-06-08T13:44:12.177Z,61.00
2018-06-08T13:46:47.890Z,61.10
2018-06-08T13:49:16.511Z,62.20
2018-06-08T13:51:46.613Z,62.00
2018-06-08T13:54:16.220Z,59.80
2018-06-08T13:56:44.805Z,60.30
2018-06-08T13:59:13.405Z,61.70
2018-06-08T14:01:41.999Z,60.40
2018-06-08T14:04:10.669Z,60.80
2018-06-08T14:06:39.343Z,60.80
2018-06-08T14:09:07.984Z,60.70
2018-06-08T14:11:36.550Z,62.70
2018-06-08T14:16:33.385Z,58.90
2018-06-08T14:19:01.908Z,62.60
2018-06-08T14:21:30.458Z,63.10
2018-06-08T14:23:59.046Z,67.10
2018-06-08T14:26:27.594Z,69.90
2018-06-08T14:28:56.182Z,72.10
2018-06-08T14:31:24.741Z,72.20
2018-06-08T14:33:53.344Z,72.30
2018-06-08T14:36:21.928Z,71.00
2018-06-08T14:38:50.510Z,71.80
2018-06-08T14:41:19.171Z,73.10
2018-06-08T14:43:47.724Z,72.40
2018-06-08T14:46:16.312Z,72.70
2018-06-08T14:48:44.889Z,75.90
2018-06-08T14:51:13.638Z,78.00
2018-06-08T14:53:42.412Z,78.50
2018-06-08T14:56:10.969Z,77.70
2018-06-08T14:58:39.568Z,77.80
2018-06-08T15:01:08.159Z,76.80
2018-06-08T15:03:36.717Z,77.50
2018-06-08T15:06:05.333Z,78.30
2018-06-08T15:08:33.930Z,78.40
2018-06-08T15:11:02.491Z,80.30
2018-06-08T15:13:31.021Z,81.70
2018-06-08T15:15:59.659Z,80.50
2018-06-08T15:18:28.270Z,80.20
2018-06-08T15:20:56.896Z,80.30
2018-06-08T15:23:25.542Z,78.20
2018-06-08T15:25:54.081Z,79.50
2018-06-08T15:28:22.670Z,79.90
2018-06-08T15:30:51.248Z,79.20
2018-06-08T15:33:19.780Z,79.50
2018-06-08T15:35:48.398Z,80.60
2018-06-08T15:38:16.992Z,81.20
2018-06-08T15:40:45.565Z,79.90
2018-06-08T15:43:14.176Z,81.30
2018-06-08T15:45:42.754Z,79.80
2018-06-08T15:48:11.344Z,79.90
2018-06-08T15:50:39.979Z,81.10
2018-06-08T15:53:08.975Z,80.10
2018-06-08T15:55:37.537Z,81.10
2018-06-08T15:58:06.097Z,81.10
2018-06-08T16:00:34.680Z,81.00
2018-06-08T16:03:03.302Z,80.80
2018-06-08T16:05:31.923Z,80.90
2018-06-08T16:08:00.578Z,82.20
2018-06-08T16:10:29.122Z,82.60
2018-06-08T16:12:57.727Z,85.00
2018-06-08T16:15:26.373Z,84.60
2018-06-08T16:17:54.978Z,84.80
2018-06-08T16:20:23.527Z,83.80
2018-06-08T16:22:52.221Z,85.00
2018-06-08T16:25:20.799Z,83.60
2018-06-08T16:27:49.403Z,83.40
2018-06-08T16:30:18.041Z,83.50
2018-06-08T16:32:46.620Z,84.60
2018-06-08T16:35:15.190Z,83.00
2018-06-08T16:37:43.882Z,82.60
2018-06-08T16:40:12.398Z,81.90
2018-06-08T16:42:41.642Z,81.70
2018-06-08T16:45:10.253Z,81.20
2018-06-08T16:47:38.772Z,81.30
2018-06-08T16:50:07.377Z,81.30
2018-06-08T16:52:36.148Z,82.10
2018-06-08T16:55:05.030Z,83.10
2018-06-08T16:57:39.682Z,83.10
2018-06-08T17:00:08.629Z,83.60
2018-06-08T17:02:37.343Z,83.10
2018-06-08T17:05:06.073Z,82.10
2018-06-08T17:07:34.640Z,81.80
2018-06-08T17:10:03.217Z,81.40
2018-06-08T17:12:31.773Z,81.20
2018-06-08T17:15:00.431Z,82.00
2018-06-08T17:17:28.988Z,81.60
2018-06-08T17:19:57.549Z,81.20
2018-06-08T17:22:26.273Z,80.30
2018-06-08T17:27:23.276Z,81.50
2018-06-08T17:29:52.047Z,81.00
2018-06-08T17:32:20.630Z,81.00
2018-06-08T17:34:49.221Z,81.20
2018-06-08T17:37:17.818Z,81.70
2018-06-08T17:39:46.369Z,81.30
2018-06-08T17:42:14.993Z,80.20
2018-06-08T17:44:43.629Z,79.90
2018-06-08T17:47:12.204Z,81.70
2018-06-08T17:49:40.838Z,81.60
2018-06-08T17:52:09.474Z,81.80
2018-06-08T17:54:38.077Z,81.00
2018-06-08T17:57:06.753Z,80.80
2018-06-08T17:59:35.372Z,81.40
2018-06-08T18:02:04.511Z,81.50
2018-06-08T18:04:33.158Z,81.30
2018-06-08T18:07:02.016Z,81.30
2018-06-08T18:09:30.579Z,81.20
2018-06-08T18:11:59.202Z,81.50
2018-06-08T18:14:27.714Z,81.20
2018-06-08T18:16:56.396Z,81.70
2018-06-08T18:19:24.964Z,81.30
2018-06-08T18:21:53.723Z,81.50
2018-06-08T18:24:22.268Z,82.00
2018-06-08T18:26:51.151Z,82.50
2018-06-08T18:29:19.758Z,82.40
2018-06-08T18:31:48.443Z,84.00
2018-06-08T18:34:17.071Z,84.00
2018-06-08T18:36:46.126Z,84.60
2018-06-08T18:39:14.751Z,84.50
2018-06-08T18:41:44.265Z,85.20
2018-06-08T18:44:13.476Z,84.30
2018-06-08T18:46:42.609Z,86.60
2018-06-08T18:49:11.917Z,86.00
2018-06-08T18:51:41.399Z,87.60
2018-06-08T18:54:10.685Z,87.50
2018-06-08T18:56:40.086Z,88.40
2018-06-08T18:59:08.699Z,89.10
2018-06-08T19:01:39.261Z,88.80
2018-06-08T19:04:08.051Z,89.30
2018-06-08T19:06:36.645Z,88.60
2018-06-08T19:09:08.309Z,88.70
2018-06-08T19:11:36.990Z,88.50
2018-06-08T19:14:06.228Z,89.20
2018-06-08T19:16:34.799Z,88.20
2018-06-08T19:19:04.038Z,87.90
2018-06-08T19:21:33.186Z,87.40
2018-06-08T19:24:02.204Z,87.00
2018-06-08T19:26:33.408Z,88.10
2018-06-08T19:29:08.309Z,87.80
2018-06-08T19:31:41.746Z,87.60
2018-06-08T19:34:19.419Z,87.80
2018-06-08T19:36:51.729Z,87.60
2018-06-08T19:39:20.409Z,87.30
2018-06-08T19:41:49.050Z,87.90
2018-06-08T19:44:23.185Z,87.90
2018-06-08T19:46:52.011Z,87.90
2018-06-08T19:49:20.584Z,89.00
2018-06-08T19:51:49.166Z,88.70
2018-06-08T19:54:17.784Z,90.00
2018-06-08T19:56:46.553Z,88.60
2018-06-08T19:59:15.209Z,87.90
2018-06-08T20:01:43.728Z,87.90
2018-06-08T20:04:16.204Z,87.90
2018-06-08T20:06:44.797Z,88.10
2018-06-08T20:09:13.368Z,88.20
2018-06-08T20:11:44.129Z,88.90
2018-06-08T20:14:13.206Z,89.50
2018-06-08T20:19:09.970Z,89.30
2018-06-08T20:21:38.504Z,89.40
2018-06-08T20:24:07.544Z,89.60
2018-06-08T20:26:36.569Z,89.90
2018-06-08T20:29:05.121Z,90.60
2018-06-08T20:31:33.635Z,90.30
2018-06-08T20:34:03.148Z,90.40
2018-06-08T20:39:00.813Z,90.60
2018-06-08T20:41:29.362Z,90.10
2018-06-08T20:43:57.902Z,90.20
2018-06-08T20:46:26.417Z,90.40
2018-06-08T20:48:55.396Z,90.20
2018-06-08T20:51:24.412Z,90.30
2018-06-08T20:53:52.993Z,90.70
2018-06-08T20:56:21.633Z,90.20
2018-06-08T20:58:50.279Z,90.40
2018-06-08T21:01:18.896Z,90.00
2018-06-08T21:03:48.001Z,90.10
2018-06-08T21:06:16.556Z,89.50
2018-06-08T21:08:45.060Z,89.10
2018-06-08T21:11:13.611Z,89.30
2018-06-08T21:13:42.784Z,89.40
2018-06-08T21:18:40.179Z,89.20
2018-06-08T21:21:09.396Z,90.00
2018-06-08T21:23:38.011Z,90.40
2018-06-08T21:26:06.552Z,90.10
2018-06-08T21:28:35.084Z,90.50
2018-06-08T21:31:03.679Z,90.60
2018-06-08T21:33:32.236Z,91.00
2018-06-08T21:36:00.840Z,90.60
2018-06-08T21:38:29.473Z,90.70
2018-06-08T21:40:58.162Z,90.50
2018-06-08T21:43:27.341Z,90.60
2018-06-08T21:45:55.889Z,90.50
2018-06-08T21:48:24.664Z,90.30
2018-06-08T21:50:53.394Z,90.20
2018-06-08T21:53:21.944Z,90.30
2018-06-08T21:55:50.509Z,90.40
2018-06-08T21:58:19.047Z,90.30
2018-06-08T22:00:47.647Z,90.70
2018-06-08T22:03:16.872Z,90.60
2018-06-08T22:05:45.395Z,90.40
2018-06-08T22:08:13.904Z,90.50
2018-06-08T22:10:42.507Z,90.50
2018-06-08T22:13:11.118Z,90.40
2018-06-08T22:15:39.643Z,90.50
2018-06-08T22:18:08.205Z,90.50
2018-06-08T22:20:36.761Z,90.90
2018-06-08T22:23:05.310Z,91.60
2018-06-08T22:25:33.874Z,91.30
2018-06-08T22:30:30.958Z,91.30
2018-06-08T22:33:00.470Z,91.00
2018-06-08T22:35:29.422Z,91.10
2018-06-08T22:37:58.709Z,91.20
2018-06-08T22:40:27.268Z,91.30
2018-06-08T22:42:56.396Z,91.30
2018-06-08T22:45:24.920Z,91.90
2018-06-08T22:47:53.691Z,91.80
2018-06-08T22:50:22.248Z,92.20
2018-06-08T22:52:50.780Z,92.20
2018-06-08T22:55:19.373Z,91.60
2018-06-08T22:57:47.917Z,91.60
2018-06-08T23:00:19.482Z,91.90
2018-06-08T23:02:48.289Z,91.60
2018-06-08T23:05:16.851Z,91.80
2018-06-08T23:07:46.010Z,92.30
2018-06-08T23:10:14.520Z,92.40
2018-06-08T23:12:43.008Z,92.30
2018-06-08T23:15:11.576Z,92.10
2018-06-08T23:17:40.172Z,92.50
2018-06-08T23:20:08.691Z,92.30
2018-06-08T23:22:37.272Z,92.40
2018-06-08T23:25:05.781Z,92.70
2018-06-08T23:27:34.348Z,92.50
2018-06-08T23:30:02.934Z,92.40
2018-06-08T23:32:32.822Z,93.30
2018-06-08T23:35:01.361Z,92.80
2018-06-08T23:39:58.092Z,93.40
2018-06-08T23:42:26.658Z,93.40
2018-06-08T23:44:56.613Z,93.30
2018-06-08T23:47:25.160Z,93.30
2018-06-08T23:49:53.728Z,93.00
2018-06-08T23:52:22.294Z,92.60
2018-06-08T23:54:50.872Z,92.80
2018-06-08T23:57:19.390Z,92.30
2018-06-08T23:59:47.923Z,92.20
